createdAt,value
2023-04-04T00:00:46.338Z,9.60
2023-04-04T00:03:13.005Z,9.50
2023-04-04T00:05:39.769Z,9.50
2023-04-04T00:08:06.627Z,9.50
2023-04-04T00:10:33.338Z,9.50
2023-04-04T00:13:00.234Z,9.40
2023-04-04T00:15:27.356Z,9.40
2023-04-04T00:17:53.948Z,9.40
2023-04-04T00:20:20.767Z,9.40
2023-04-04T00:22:47.364Z,9.30
2023-04-04T00:25:14.559Z,9.30
2023-04-04T00:27:41.306Z,9.30
2023-04-04T00:30:08.414Z,9.20
2023-04-04T00:32:35.068Z,9.20
2023-04-04T00:35:01.728Z,9.20
2023-04-04T00:37:28.324Z,9.20
2023-04-04T00:39:54.960Z,9.20
2023-04-04T00:42:21.702Z,9.10
2023-04-04T00:44:48.712Z,9.10
2023-04-04T00:47:15.662Z,9.10
2023-04-04T00:49:42.278Z,9.00
2023-04-04T00:52:08.987Z,9.00
2023-04-04T00:54:35.985Z,9.00
2023-04-04T00:57:04.367Z,9.00
2023-04-04T00:59:31.359Z,8.90
2023-04-04T01:01:58.442Z,8.90
2023-04-04T01:04:25.227Z,8.90
2023-04-04T01:06:52.155Z,8.80
2023-04-04T01:09:19.125Z,8.80
2023-04-04T01:11:46.071Z,8.80
2023-04-04T01:14:12.892Z,8.80
2023-04-04T01:16:39.886Z,8.80
2023-04-04T01:19:11.628Z,8.70
2023-04-04T01:21:39.506Z,8.70
2023-04-04T01:24:08.356Z,8.70
2023-04-04T01:26:34.990Z,8.70
2023-04-04T01:29:01.825Z,8.60
2023-04-04T01:31:30.093Z,8.60
2023-04-04T01:34:10.064Z,8.60
2023-04-04T01:36:45.117Z,8.60
2023-04-04T01:39:30.275Z,8.60
2023-04-04T01:41:58.441Z,8.50
2023-04-04T01:44:26.531Z,8.50
2023-04-04T01:46:55.629Z,8.50
2023-04-04T01:49:23.475Z,8.50
2023-04-04T01:51:52.401Z,8.40
2023-04-04T01:54:22.617Z,8.40
2023-04-04T01:56:49.362Z,8.40
2023-04-04T01:59:16.341Z,8.30
2023-04-04T02:01:43.723Z,8.30
2023-04-04T02:04:12.618Z,8.30
2023-04-04T02:06:40.470Z,8.30
2023-04-04T02:09:07.339Z,8.30
2023-04-04T02:11:33.992Z,8.20
2023-04-04T02:14:00.818Z,8.20
2023-04-04T02:16:27.491Z,8.20
2023-04-04T02:18:54.102Z,8.20
2023-04-04T02:21:20.853Z,8.10
2023-04-04T02:23:47.628Z,8.10
2023-04-04T02:26:14.300Z,8.10
2023-04-04T02:28:40.854Z,8.10
2023-04-04T02:31:07.532Z,8.10
2023-04-04T02:33:34.189Z,8.10
2023-04-04T02:36:00.965Z,8.00
2023-04-04T02:38:27.580Z,8.00
2023-04-04T02:40:54.275Z,8.00
2023-04-04T02:43:21.177Z,7.90
2023-04-04T02:45:48.422Z,7.90
2023-04-04T02:48:15.709Z,7.90
2023-04-04T02:50:42.575Z,7.90
2023-04-04T02:53:09.513Z,7.90
2023-04-04T02:55:36.239Z,7.90
2023-04-04T02:58:02.938Z,7.80
2023-04-04T03:00:29.755Z,7.80
2023-04-04T03:02:57.947Z,7.80
2023-04-04T03:05:25.440Z,7.80
2023-04-04T03:07:58.495Z,7.80
2023-04-04T03:10:26.373Z,7.70
2023-04-04T03:12:53.548Z,7.70
2023-04-04T03:15:20.695Z,7.70
2023-04-04T03:17:47.751Z,7.70
2023-04-04T03:20:15.234Z,7.60
2023-04-04T03:22:42.456Z,7.60
2023-04-04T03:25:09.680Z,7.60
2023-04-04T03:27:36.458Z,7.60
2023-04-04T03:30:03.960Z,7.50
2023-04-04T03:32:30.732Z,7.50
2023-04-04T03:34:57.418Z,7.50
2023-04-04T03:37:24.216Z,7.50
2023-04-04T03:39:50.852Z,7.50
2023-04-04T03:42:17.478Z,7.40
2023-04-04T03:44:44.064Z,7.40
2023-04-04T03:47:10.773Z,7.40
2023-04-04T03:49:37.439Z,7.40
2023-04-04T03:52:04.332Z,7.40
2023-04-04T03:54:30.985Z,7.30
2023-04-04T03:56:57.829Z,7.30
2023-04-04T03:59:24.701Z,7.30
2023-04-04T04:01:52.260Z,7.30
2023-04-04T04:04:18.932Z,7.30
2023-04-04T04:06:45.579Z,7.20
2023-04-04T04:09:15.037Z,7.20
2023-04-04T04:11:41.854Z,7.20
2023-04-04T04:14:08.538Z,7.20
2023-04-04T04:16:35.215Z,7.20
2023-04-04T04:19:02.479Z,7.20
2023-04-04T04:21:29.094Z,7.10
2023-04-04T04:23:55.693Z,7.10
2023-04-04T04:26:22.404Z,7.10
2023-04-04T04:28:49.106Z,7.10
2023-04-04T04:31:15.755Z,7.00
2023-04-04T04:33:42.402Z,7.00
2023-04-04T04:36:09.230Z,7.00
2023-04-04T04:38:35.864Z,6.80
2023-04-04T04:41:02.594Z,6.80
2023-04-04T04:43:29.221Z,6.80
2023-04-04T04:45:55.850Z,6.80
2023-04-04T04:48:22.648Z,6.80
2023-04-04T04:50:49.375Z,6.80
2023-04-04T04:53:16.741Z,6.70
2023-04-04T04:55:43.830Z,6.70
2023-04-04T04:58:11.189Z,6.70
2023-04-04T05:00:39.123Z,6.70
2023-04-04T05:03:08.776Z,6.70
2023-04-04T05:05:36.324Z,6.70
2023-04-04T05:08:03.743Z,6.60
2023-04-04T05:10:31.609Z,6.60
2023-04-04T05:12:58.349Z,6.60
2023-04-04T05:15:29.329Z,6.60
2023-04-04T05:17:55.969Z,6.60
2023-04-04T05:20:23.306Z,6.50
2023-04-04T05:22:51.509Z,6.50
2023-04-04T05:25:18.321Z,6.50
2023-04-04T05:27:49.250Z,6.50
2023-04-04T05:30:16.451Z,6.50
2023-04-04T05:32:45.478Z,6.50
2023-04-04T05:35:12.951Z,6.50
2023-04-04T05:37:40.556Z,6.40
2023-04-04T05:40:08.452Z,6.40
2023-04-04T05:42:35.260Z,6.40
2023-04-04T05:45:02.055Z,6.40
2023-04-04T05:47:28.724Z,6.40
2023-04-04T05:49:55.408Z,6.40
2023-04-04T05:52:22.091Z,6.40
2023-04-04T05:54:48.769Z,6.40
2023-04-04T05:57:15.455Z,6.30
2023-04-04T05:59:42.216Z,6.30
2023-04-04T06:02:08.807Z,6.30
2023-04-04T06:04:35.512Z,6.30
2023-04-04T06:07:02.522Z,6.40
2023-04-04T06:09:29.212Z,6.40
2023-04-04T06:11:56.433Z,6.40
2023-04-04T06:14:23.061Z,6.40
2023-04-04T06:16:49.748Z,6.40
2023-04-04T06:19:16.873Z,6.40
2023-04-04T06:21:43.480Z,6.50
2023-04-04T06:24:10.057Z,6.50
2023-04-04T06:26:36.703Z,6.60
2023-04-04T06:29:03.699Z,6.60
2023-04-04T06:31:30.740Z,6.60
2023-04-04T06:33:57.758Z,6.60
2023-04-04T06:36:24.329Z,6.70
2023-04-04T06:38:50.914Z,6.70
2023-04-04T06:41:17.527Z,6.80
2023-04-04T06:43:46.708Z,6.80
2023-04-04T06:46:13.273Z,6.90
2023-04-04T06:48:39.996Z,6.90
2023-04-04T06:51:07.857Z,7.00
2023-04-04T06:53:34.897Z,7.00
2023-04-04T06:56:01.581Z,7.10
2023-04-04T06:58:28.469Z,7.10
2023-04-04T07:00:56.632Z,7.20
2023-04-04T07:03:24.498Z,7.20
2023-04-04T07:05:51.239Z,7.30
2023-04-04T07:08:17.815Z,7.40
2023-04-04T07:10:44.500Z,7.40
2023-04-04T07:13:11.359Z,7.50
2023-04-04T07:15:37.988Z,7.50
2023-04-04T07:18:04.658Z,7.70
2023-04-04T07:20:32.304Z,7.80
2023-04-04T07:22:58.931Z,7.90
2023-04-04T07:25:25.617Z,8.00
2023-04-04T07:28:02.314Z,8.00
2023-04-04T07:30:36.541Z,8.20
2023-04-04T07:33:04.539Z,8.30
2023-04-04T07:35:31.355Z,8.50
2023-04-04T07:37:58.103Z,8.60
2023-04-04T07:40:24.713Z,8.60
2023-04-04T07:42:51.828Z,8.80
2023-04-04T07:45:18.596Z,8.80
2023-04-04T07:47:46.219Z,9.00
2023-04-04T07:50:14.131Z,9.00
2023-04-04T07:52:41.666Z,9.00
2023-04-04T07:55:09.114Z,9.20
2023-04-04T07:57:39.780Z,9.20
2023-04-04T08:00:09.714Z,9.30
2023-04-04T08:02:39.573Z,9.60
2023-04-04T08:05:06.957Z,9.60
2023-04-04T08:07:33.715Z,9.60
2023-04-04T08:10:00.511Z,9.80
2023-04-04T08:12:27.201Z,9.80
2023-04-04T08:14:53.827Z,9.80
2023-04-04T08:17:21.033Z,9.90
2023-04-04T08:19:47.617Z,10.00
2023-04-04T08:22:14.485Z,10.20
2023-04-04T08:24:41.115Z,10.20
2023-04-04T08:27:07.784Z,10.60
2023-04-04T08:29:34.738Z,10.70
2023-04-04T08:32:01.428Z,10.70
2023-04-04T08:34:28.743Z,10.90
2023-04-04T08:36:55.669Z,10.80
2023-04-04T08:39:22.278Z,11.10
2023-04-04T08:41:55.642Z,11.10
2023-04-04T08:44:24.885Z,11.10
2023-04-04T08:46:52.133Z,11.30
2023-04-04T08:49:21.283Z,11.20
2023-04-04T08:51:49.195Z,11.20
2023-04-04T08:54:17.210Z,11.50
2023-04-04T08:56:43.832Z,11.60
2023-04-04T08:59:13.949Z,11.70
2023-04-04T09:01:40.595Z,11.90
2023-04-04T09:04:09.510Z,11.90
2023-04-04T09:06:37.186Z,12.00
2023-04-04T09:09:04.173Z,11.90
2023-04-04T09:11:34.027Z,12.20
2023-04-04T09:14:04.483Z,12.20
2023-04-04T09:16:31.565Z,12.10
2023-04-04T09:19:01.126Z,12.30
2023-04-04T09:21:29.320Z,12.60
2023-04-04T09:24:00.275Z,12.70
2023-04-04T09:26:27.256Z,12.70
2023-04-04T09:28:53.990Z,12.70
2023-04-04T09:31:21.053Z,12.90
2023-04-04T09:33:50.496Z,13.10
2023-04-04T09:36:21.052Z,13.10
2023-04-04T09:38:48.888Z,13.30
2023-04-04T09:41:16.611Z,13.30
2023-04-04T09:43:47.287Z,13.40
2023-04-04T09:46:15.948Z,13.50
2023-04-04T09:48:49.103Z,13.60
2023-04-04T09:51:16.227Z,13.80
2023-04-04T09:53:47.511Z,13.80
2023-04-04T09:56:14.401Z,13.70
2023-04-04T09:58:52.331Z,13.80
2023-04-04T10:01:24.419Z,13.90
2023-04-04T10:03:54.669Z,14.00
2023-04-04T10:06:22.438Z,14.00
2023-04-04T10:08:50.081Z,14.00
2023-04-04T10:11:33.602Z,14.00
2023-04-04T10:14:02.797Z,14.10
2023-04-04T10:16:34.863Z,14.20
2023-04-04T10:19:04.496Z,14.30
2023-04-04T10:21:31.545Z,14.40
2023-04-04T10:24:00.287Z,14.30
2023-04-04T10:26:27.239Z,14.40
2023-04-04T10:28:54.281Z,14.60
2023-04-04T10:31:25.760Z,14.60
2023-04-04T10:34:33.855Z,14.60
2023-04-04T10:37:10.752Z,14.70
2023-04-04T10:39:52.267Z,14.80
2023-04-04T10:42:19.786Z,14.80
2023-04-04T10:44:47.648Z,14.90
2023-04-04T10:47:17.061Z,14.90
2023-04-04T10:49:45.749Z,15.10
2023-04-04T10:52:20.943Z,15.10
2023-04-04T10:54:50.961Z,15.30
2023-04-04T10:57:18.041Z,15.20
2023-04-04T11:00:12.951Z,15.30
2023-04-04T11:02:52.835Z,15.40
2023-04-04T11:05:24.420Z,15.70
2023-04-04T11:10:32.705Z,15.90
2023-04-04T11:13:12.760Z,15.90
2023-04-04T11:15:53.237Z,15.90
2023-04-04T11:18:30.517Z,16.10
2023-04-04T11:21:03.718Z,16.10
2023-04-04T11:23:52.846Z,16.20
2023-04-04T11:26:35.674Z,16.30
2023-04-04T11:29:04.565Z,16.40
2023-04-04T11:31:43.258Z,16.30
2023-04-04T11:34:14.645Z,16.50
2023-04-04T11:36:45.324Z,16.60
2023-04-04T11:39:24.314Z,16.70
2023-04-04T11:42:08.301Z,16.80
2023-04-04T11:44:41.559Z,16.80
2023-04-04T11:47:09.326Z,16.90
2023-04-04T11:49:47.002Z,17.00
2023-04-04T11:52:15.914Z,17.10
2023-04-04T11:54:44.391Z,17.10
2023-04-04T11:57:21.174Z,17.20
2023-04-04T11:59:49.809Z,17.40
2023-04-04T12:02:20.100Z,17.30
2023-04-04T12:04:47.647Z,17.40
2023-04-04T12:07:17.345Z,17.40
2023-04-04T12:09:45.047Z,17.40
2023-04-04T12:12:16.457Z,17.50
2023-04-04T12:14:43.701Z,17.80
2023-04-04T12:17:10.647Z,17.80
2023-04-04T12:19:38.811Z,17.70
2023-04-04T12:22:06.240Z,17.70
2023-04-04T12:24:33.167Z,18.00
2023-04-04T12:27:00.061Z,18.10
2023-04-04T12:29:28.423Z,18.20
2023-04-04T12:31:56.073Z,18.00
2023-04-04T12:34:24.616Z,18.30
2023-04-04T12:36:58.716Z,18.10
2023-04-04T12:39:29.522Z,18.40
2023-04-04T12:42:03.737Z,18.50
2023-04-04T12:44:36.037Z,18.50
2023-04-04T12:47:05.148Z,18.20
2023-04-04T12:49:48.808Z,18.70
2023-04-04T12:52:21.772Z,18.70
2023-04-04T12:54:59.131Z,18.90
2023-04-04T12:57:34.548Z,18.80
2023-04-04T13:00:04.057Z,18.90
2023-04-04T13:02:30.799Z,18.90
2023-04-04T13:04:58.901Z,18.60
2023-04-04T13:07:42.925Z,18.60
2023-04-04T13:10:15.117Z,18.60
2023-04-04T13:13:01.672Z,18.50
2023-04-04T13:15:50.555Z,18.70
2023-04-04T13:18:25.725Z,18.80
2023-04-04T13:20:54.105Z,18.90
2023-04-04T13:23:21.818Z,18.90
2023-04-04T13:25:48.563Z,18.90
2023-04-04T13:28:15.701Z,19.10
2023-04-04T13:30:46.883Z,19.00
2023-04-04T13:33:13.929Z,19.10
2023-04-04T13:35:43.818Z,19.10
2023-04-04T13:38:11.604Z,19.20
2023-04-04T13:40:38.524Z,19.50
2023-04-04T13:43:05.352Z,19.70
2023-04-04T13:45:33.813Z,19.70
2023-04-04T13:48:01.032Z,20.10
2023-04-04T13:50:28.033Z,19.80
2023-04-04T13:52:54.844Z,19.50
2023-04-04T13:55:21.993Z,20.10
2023-04-04T13:57:48.584Z,20.20
2023-04-04T14:00:15.840Z,20.10
2023-04-04T14:02:42.443Z,20.30
2023-04-04T14:05:09.251Z,20.30
2023-04-04T14:07:37.872Z,20.20
2023-04-04T14:10:05.457Z,20.30
2023-04-04T14:12:32.017Z,20.20
2023-04-04T14:14:58.574Z,20.40
2023-04-04T14:17:25.198Z,20.50
2023-04-04T14:19:51.768Z,20.50
2023-04-04T14:22:18.300Z,20.50
2023-04-04T14:24:44.896Z,20.60
2023-04-04T14:27:11.963Z,20.40
2023-04-04T14:29:38.630Z,20.50
2023-04-04T14:32:05.314Z,20.50
2023-04-04T14:34:32.050Z,20.40
2023-04-04T14:36:59.923Z,20.50
2023-04-04T14:39:26.739Z,20.50
2023-04-04T14:41:53.536Z,20.50
2023-04-04T14:44:22.030Z,20.50
2023-04-04T14:46:52.879Z,20.30
2023-04-04T14:49:19.573Z,19.80
2023-04-04T14:51:46.296Z,19.60
2023-04-04T14:54:13.047Z,19.70
2023-04-04T14:56:39.687Z,19.70
2023-04-04T14:59:07.063Z,19.60
2023-04-04T15:01:33.839Z,19.40
2023-04-04T15:04:00.637Z,19.50
2023-04-04T15:06:27.544Z,20.00
2023-04-04T15:08:54.278Z,20.20
2023-04-04T15:11:21.423Z,20.20
2023-04-04T15:13:50.333Z,20.30
2023-04-04T15:16:17.594Z,20.20
2023-04-04T15:18:44.291Z,20.20
2023-04-04T15:21:11.474Z,20.20
2023-04-04T15:23:38.150Z,20.20
2023-04-04T15:26:06.373Z,20.20
2023-04-04T15:28:33.348Z,20.10
2023-04-04T15:31:06.243Z,20.10
2023-04-04T15:33:33.068Z,20.10
2023-04-04T15:35:59.726Z,20.10
2023-04-04T15:38:26.477Z,20.10
2023-04-04T15:40:53.150Z,20.00
2023-04-04T15:43:19.727Z,20.00
2023-04-04T15:45:47.379Z,20.00
2023-04-04T15:48:14.063Z,19.90
2023-04-04T15:50:41.140Z,19.90
2023-04-04T15:53:08.042Z,19.90
2023-04-04T15:55:34.658Z,19.80
2023-04-04T15:58:01.336Z,19.80
2023-04-04T16:00:30.896Z,19.80
2023-04-04T16:02:58.892Z,19.70
2023-04-04T16:05:27.238Z,19.70
2023-04-04T16:07:53.899Z,19.40
2023-04-04T16:10:20.709Z,19.20
2023-04-04T16:12:47.297Z,19.40
2023-04-04T16:15:13.858Z,19.40
2023-04-04T16:17:40.437Z,19.30
2023-04-04T16:20:07.553Z,19.30
2023-04-04T16:22:34.201Z,19.30
2023-04-04T16:25:00.883Z,19.20
2023-04-04T16:27:27.506Z,19.20
2023-04-04T16:29:54.070Z,19.10
2023-04-04T16:32:20.754Z,19.10
2023-04-04T16:34:47.332Z,19.10
2023-04-04T16:37:15.761Z,19.00
2023-04-04T16:39:42.394Z,18.90
2023-04-04T16:42:08.986Z,18.90
2023-04-04T16:44:35.834Z,18.80
2023-04-04T16:47:02.618Z,18.70
2023-04-04T16:49:29.363Z,18.70
2023-04-04T16:51:55.954Z,18.60
2023-04-04T16:54:22.590Z,18.60
2023-04-04T16:56:49.284Z,18.50
2023-04-04T16:59:17.420Z,18.40
2023-04-04T17:01:44.296Z,18.40
2023-04-04T17:04:11.003Z,18.30
2023-04-04T17:06:37.733Z,18.20
2023-04-04T17:09:04.345Z,18.20
2023-04-04T17:11:31.074Z,18.10
2023-04-04T17:13:58.066Z,18.00
2023-04-04T17:16:26.294Z,18.00
2023-04-04T17:18:53.088Z,17.90
2023-04-04T17:21:20.044Z,17.90
2023-04-04T17:23:46.726Z,17.80
2023-04-04T17:26:13.358Z,17.70
2023-04-04T17:28:40.004Z,17.70
2023-04-04T17:31:07.668Z,17.60
2023-04-04T17:33:34.339Z,17.50
2023-04-04T17:36:02.504Z,17.40
2023-04-04T17:38:30.860Z,17.30
2023-04-04T17:41:00.678Z,17.30
2023-04-04T17:43:27.436Z,17.20
2023-04-04T17:45:54.018Z,17.20
2023-04-04T17:48:20.590Z,17.10
2023-04-04T17:50:47.826Z,17.00
2023-04-04T17:53:14.422Z,17.00
2023-04-04T17:55:41.238Z,16.90
2023-04-04T17:58:08.051Z,16.80
2023-04-04T18:00:34.958Z,16.80
2023-04-04T18:03:02.008Z,16.70
2023-04-04T18:05:28.837Z,16.60
2023-04-04T18:07:56.110Z,16.50
2023-04-04T18:10:22.698Z,16.50
2023-04-04T18:12:49.273Z,16.40
2023-04-04T18:15:16.134Z,16.30
2023-04-04T18:17:42.965Z,16.20
2023-04-04T18:20:11.433Z,16.20
2023-04-04T18:22:39.268Z,16.10
2023-04-04T18:25:07.210Z,16.10
2023-04-04T18:27:34.340Z,16.00
2023-04-04T18:30:00.909Z,15.90
2023-04-04T18:32:29.067Z,15.80
2023-04-04T18:34:55.921Z,15.80
2023-04-04T18:37:22.497Z,15.70
2023-04-04T18:39:49.080Z,15.60
2023-04-04T18:42:15.943Z,15.60
2023-04-04T18:44:42.549Z,15.50
2023-04-04T18:47:09.322Z,15.40
2023-04-04T18:49:36.386Z,15.40
2023-04-04T18:52:02.971Z,15.30
2023-04-04T18:54:30.334Z,15.30
2023-04-04T18:56:57.704Z,15.20
2023-04-04T18:59:24.765Z,15.10
2023-04-04T19:01:54.291Z,15.10
2023-04-04T19:04:21.650Z,15.00
2023-04-04T19:06:53.488Z,15.00
2023-04-04T19:09:20.909Z,14.90
2023-04-04T19:11:49.134Z,14.90
2023-04-04T19:14:15.875Z,14.80
2023-04-04T19:16:42.742Z,14.70
2023-04-04T19:19:09.521Z,14.70
2023-04-04T19:21:36.120Z,14.60
2023-04-04T19:24:03.183Z,14.50
2023-04-04T19:26:30.093Z,14.50
2023-04-04T19:28:56.738Z,14.40
2023-04-04T19:31:24.581Z,14.40
2023-04-04T19:33:54.969Z,14.30
2023-04-04T19:36:21.874Z,14.20
2023-04-04T19:38:49.348Z,14.20
2023-04-04T19:41:19.005Z,14.10
2023-04-04T19:43:47.658Z,14.10
2023-04-04T19:46:17.222Z,14.00
2023-04-04T19:48:49.176Z,14.00
2023-04-04T19:51:16.588Z,13.90
2023-04-04T19:53:44.563Z,13.90
2023-04-04T19:56:12.612Z,13.80
2023-04-04T19:58:39.576Z,13.80
2023-04-04T20:01:07.749Z,13.70
2023-04-04T20:03:36.936Z,13.60
2023-04-04T20:06:27.960Z,13.60
2023-04-04T20:09:02.892Z,13.50
2023-04-04T20:11:34.760Z,13.50
2023-04-04T20:14:06.138Z,13.40
2023-04-04T20:16:33.457Z,13.40
2023-04-04T20:19:02.253Z,13.30
2023-04-04T20:21:33.803Z,13.30
2023-04-04T20:24:08.302Z,13.20
2023-04-04T20:26:35.385Z,13.20
2023-04-04T20:29:06.378Z,13.10
2023-04-04T20:31:41.953Z,13.00
2023-04-04T20:34:46.350Z,13.00
2023-04-04T20:37:14.238Z,13.00
2023-04-04T20:39:46.312Z,12.90
2023-04-04T20:42:34.654Z,12.90
2023-04-04T20:45:04.244Z,12.80
2023-04-04T20:47:52.155Z,12.80
2023-04-04T20:50:21.501Z,12.70
2023-04-04T20:52:53.376Z,12.70
2023-04-04T20:55:22.449Z,12.60
2023-04-04T20:57:50.937Z,12.60
2023-04-04T21:00:30.096Z,12.50
2023-04-04T21:02:58.653Z,12.50
2023-04-04T21:05:29.814Z,12.50
2023-04-04T21:07:57.072Z,12.40
2023-04-04T21:10:29.757Z,12.40
2023-04-04T21:12:57.689Z,12.30
2023-04-04T21:15:29.595Z,12.30
2023-04-04T21:17:59.457Z,12.30
2023-04-04T21:20:53.613Z,12.20
2023-04-04T21:23:26.184Z,12.20
2023-04-04T21:26:08.063Z,12.10
2023-04-04T21:28:37.639Z,12.10
2023-04-04T21:31:15.140Z,12.10
2023-04-04T21:33:45.392Z,12.00
2023-04-04T21:36:28.323Z,12.00
2023-04-04T21:38:59.966Z,11.90
2023-04-04T21:41:34.095Z,11.90
2023-04-04T21:44:02.495Z,11.80
2023-04-04T21:46:31.736Z,11.80
2023-04-04T21:48:58.380Z,11.70
2023-04-04T21:51:24.965Z,11.70
2023-04-04T21:53:51.706Z,11.70
2023-04-04T21:56:18.671Z,11.60
2023-04-04T21:58:45.812Z,11.60
2023-04-04T22:01:12.433Z,11.50
2023-04-04T22:03:39.588Z,11.50
2023-04-04T22:06:07.227Z,11.40
2023-04-04T22:08:33.844Z,11.40
2023-04-04T22:11:02.279Z,11.40
2023-04-04T22:13:42.997Z,11.30
2023-04-04T22:16:16.119Z,11.30
2023-04-04T22:18:48.026Z,11.20
2023-04-04T22:21:15.545Z,11.20
2023-04-04T22:23:42.698Z,11.20
2023-04-04T22:26:13.811Z,11.10
2023-04-04T22:28:42.554Z,11.10
2023-04-04T22:31:09.478Z,11.00
2023-04-04T22:33:36.050Z,11.00
2023-04-04T22:36:03.660Z,11.00
2023-04-04T22:38:30.343Z,10.90
2023-04-04T22:40:58.600Z,10.90
2023-04-04T22:43:26.057Z,10.90
2023-04-04T22:45:53.332Z,10.80
2023-04-04T22:48:24.101Z,10.80
2023-04-04T22:50:55.570Z,10.70
2023-04-04T22:53:26.193Z,10.70
2023-04-04T22:55:54.093Z,10.60
2023-04-04T22:58:21.686Z,10.60
2023-04-04T23:00:48.528Z,10.60
2023-04-04T23:03:15.895Z,10.60
2023-04-04T23:05:42.883Z,10.50
2023-04-04T23:08:09.562Z,10.50
2023-04-04T23:10:36.867Z,10.40
2023-04-04T23:13:03.589Z,10.40
2023-04-04T23:15:32.378Z,10.40
2023-04-04T23:17:59.140Z,10.30
2023-04-04T23:20:25.953Z,10.30
2023-04-04T23:22:52.942Z,10.30
2023-04-04T23:25:19.753Z,10.20
2023-04-04T23:27:46.483Z,10.20
2023-04-04T23:30:13.292Z,10.10
2023-04-04T23:32:39.982Z,10.10
2023-04-04T23:35:07.073Z,10.10
2023-04-04T23:37:34.145Z,10.00
2023-04-04T23:40:00.922Z,10.00
2023-04-04T23:42:27.518Z,10.00
2023-04-04T23:44:54.252Z,9.90
2023-04-04T23:47:20.963Z,9.90
2023-04-04T23:49:47.621Z,9.80
2023-04-04T23:52:14.337Z,9.80
2023-04-04T23:54:40.907Z,9.80
2023-04-04T23:57:07.514Z,9.80
2023-04-04T23:59:34.088Z,9.70
